sensor_id;sensor_type;location;lat;lon;timestamp;P1;durP1;ratioP1;P2;durP2;ratioP2
25237;SDS011;13185;50.872;5.306;2023-02-25T00:01:59;10.93;;;2.23;;
25237;SDS011;13185;50.872;5.306;2023-02-25T00:04:26;9.10;;;1.80;;
25237;SDS011;13185;50.872;5.306;2023-02-25T00:06:52;7.30;;;1.70;;
25237;SDS011;13185;50.872;5.306;2023-02-25T00:09:19;8.53;;;2.17;;
25237;SDS011;13185;50.872;5.306;2023-02-25T00:11:45;11.63;;;1.93;;
25237;SDS011;13185;50.872;5.306;2023-02-25T00:14:10;7.93;;;2.20;;
25237;SDS011;13185;50.872;5.306;2023-02-25T00:16:36;11.20;;;2.00;;
25237;SDS011;13185;50.872;5.306;2023-02-25T00:19:01;9.23;;;1.67;;
25237;SDS011;13185;50.872;5.306;2023-02-25T00:21:28;9.30;;;1.60;;
25237;SDS011;13185;50.872;5.306;2023-02-25T00:23:53;8.47;;;2.07;;
25237;SDS011;13185;50.872;5.306;2023-02-25T00:26:20;8.13;;;2.20;;
25237;SDS011;13185;50.872;5.306;2023-02-25T00:28:46;7.77;;;1.67;;
25237;SDS011;13185;50.872;5.306;2023-02-25T00:31:17;10.33;;;1.80;;
25237;SDS011;13185;50.872;5.306;2023-02-25T00:33:47;9.50;;;2.50;;
25237;SDS011;13185;50.872;5.306;2023-02-25T00:36:15;8.83;;;2.23;;
25237;SDS011;13185;50.872;5.306;2023-02-25T00:38:46;9.63;;;2.17;;
25237;SDS011;13185;50.872;5.306;2023-02-25T00:41:15;9.00;;;2.27;;
25237;SDS011;13185;50.872;5.306;2023-02-25T00:43:43;10.70;;;2.97;;
25237;SDS011;13185;50.872;5.306;2023-02-25T00:46:12;7.33;;;1.63;;
25237;SDS011;13185;50.872;5.306;2023-02-25T00:48:38;11.43;;;2.37;;
25237;SDS011;13185;50.872;5.306;2023-02-25T00:51:08;9.73;;;1.90;;
25237;SDS011;13185;50.872;5.306;2023-02-25T00:53:35;9.37;;;1.90;;
25237;SDS011;13185;50.872;5.306;2023-02-25T00:56:04;11.07;;;2.03;;
25237;SDS011;13185;50.872;5.306;2023-02-25T00:58:37;10.83;;;2.10;;
25237;SDS011;13185;50.872;5.306;2023-02-25T01:01:04;7.13;;;1.60;;
25237;SDS011;13185;50.872;5.306;2023-02-25T01:03:31;6.87;;;1.70;;
25237;SDS011;13185;50.872;5.306;2023-02-25T01:05:57;12.03;;;2.20;;
25237;SDS011;13185;50.872;5.306;2023-02-25T01:08:22;4.37;;;1.80;;
25237;SDS011;13185;50.872;5.306;2023-02-25T01:10:48;7.20;;;1.77;;
25237;SDS011;13185;50.872;5.306;2023-02-25T01:13:14;10.23;;;2.10;;
25237;SDS011;13185;50.872;5.306;2023-02-25T01:15:40;8.03;;;1.43;;
25237;SDS011;13185;50.872;5.306;2023-02-25T01:18:06;8.93;;;1.83;;
25237;SDS011;13185;50.872;5.306;2023-02-25T01:20:32;11.63;;;2.83;;
25237;SDS011;13185;50.872;5.306;2023-02-25T01:23:02;14.60;;;2.57;;
25237;SDS011;13185;50.872;5.306;2023-02-25T01:25:28;10.60;;;2.17;;
25237;SDS011;13185;50.872;5.306;2023-02-25T01:27:54;8.57;;;2.33;;
25237;SDS011;13185;50.872;5.306;2023-02-25T01:30:20;7.20;;;1.70;;
25237;SDS011;13185;50.872;5.306;2023-02-25T01:32:46;9.33;;;2.10;;
25237;SDS011;13185;50.872;5.306;2023-02-25T01:38:09;10.80;;;2.27;;
25237;SDS011;13185;50.872;5.306;2023-02-25T01:40:34;8.20;;;2.30;;
25237;SDS011;13185;50.872;5.306;2023-02-25T01:43:03;12.27;;;2.50;;
25237;SDS011;13185;50.872;5.306;2023-02-25T01:45:30;12.20;;;2.40;;
25237;SDS011;13185;50.872;5.306;2023-02-25T01:47:59;12.03;;;2.33;;
25237;SDS011;13185;50.872;5.306;2023-02-25T01:50:34;10.67;;;2.30;;
25237;SDS011;13185;50.872;5.306;2023-02-25T01:53:06;9.37;;;3.37;;
25237;SDS011;13185;50.872;5.306;2023-02-25T01:55:32;9.40;;;2.33;;
25237;SDS011;13185;50.872;5.306;2023-02-25T01:57:58;16.97;;;2.67;;
25237;SDS011;13185;50.872;5.306;2023-02-25T02:00:26;10.17;;;2.43;;
25237;SDS011;13185;50.872;5.306;2023-02-25T02:02:55;15.13;;;3.17;;
25237;SDS011;13185;50.872;5.306;2023-02-25T02:05:24;10.97;;;2.23;;
25237;SDS011;13185;50.872;5.306;2023-02-25T02:08:01;7.67;;;2.03;;
25237;SDS011;13185;50.872;5.306;2023-02-25T02:10:27;9.57;;;2.10;;
25237;SDS011;13185;50.872;5.306;2023-02-25T02:12:52;11.60;;;3.23;;
25237;SDS011;13185;50.872;5.306;2023-02-25T02:15:18;11.23;;;2.97;;
25237;SDS011;13185;50.872;5.306;2023-02-25T02:20:25;16.37;;;3.00;;
25237;SDS011;13185;50.872;5.306;2023-02-25T02:31:44;11.80;;;2.60;;
25237;SDS011;13185;50.872;5.306;2023-02-25T02:47:39;9.10;;;2.50;;
25237;SDS011;13185;50.872;5.306;2023-02-25T02:50:11;8.63;;;1.97;;
25237;SDS011;13185;50.872;5.306;2023-02-25T02:52:45;9.93;;;2.17;;
25237;SDS011;13185;50.872;5.306;2023-02-25T02:55:22;10.70;;;2.23;;
25237;SDS011;13185;50.872;5.306;2023-02-25T02:57:57;14.97;;;2.20;;
25237;SDS011;13185;50.872;5.306;2023-02-25T03:00:28;11.93;;;2.10;;
25237;SDS011;13185;50.872;5.306;2023-02-25T03:03:18;9.67;;;2.17;;
25237;SDS011;13185;50.872;5.306;2023-02-25T03:06:01;14.93;;;2.20;;
25237;SDS011;13185;50.872;5.306;2023-02-25T03:08:34;10.63;;;2.47;;
25237;SDS011;13185;50.872;5.306;2023-02-25T03:11:08;9.13;;;2.23;;
25237;SDS011;13185;50.872;5.306;2023-02-25T03:13:34;10.10;;;1.73;;
25237;SDS011;13185;50.872;5.306;2023-02-25T03:16:01;14.17;;;3.40;;
25237;SDS011;13185;50.872;5.306;2023-02-25T03:18:47;7.80;;;1.73;;
25237;SDS011;13185;50.872;5.306;2023-02-25T03:21:20;8.90;;;1.57;;
25237;SDS011;13185;50.872;5.306;2023-02-25T03:23:50;11.20;;;1.87;;
25237;SDS011;13185;50.872;5.306;2023-02-25T03:26:23;9.80;;;2.17;;
25237;SDS011;13185;50.872;5.306;2023-02-25T03:28:57;9.80;;;1.43;;
25237;SDS011;13185;50.872;5.306;2023-02-25T03:31:23;6.73;;;1.50;;
25237;SDS011;13185;50.872;5.306;2023-02-25T03:34:19;10.77;;;1.80;;
25237;SDS011;13185;50.872;5.306;2023-02-25T03:39:42;6.43;;;1.57;;
25237;SDS011;13185;50.872;5.306;2023-02-25T03:42:13;5.23;;;1.10;;
25237;SDS011;13185;50.872;5.306;2023-02-25T03:44:45;10.23;;;1.77;;
25237;SDS011;13185;50.872;5.306;2023-02-25T03:47:18;10.70;;;1.55;;
25237;SDS011;13185;50.872;5.306;2023-02-25T03:49:47;6.80;;;1.43;;
25237;SDS011;13185;50.872;5.306;2023-02-25T03:52:19;13.82;;;1.70;;
25237;SDS011;13185;50.872;5.306;2023-02-25T03:54:53;21.27;;;2.42;;
25237;SDS011;13185;50.872;5.306;2023-02-25T03:57:21;13.90;;;2.17;;
25237;SDS011;13185;50.872;5.306;2023-02-25T03:59:51;6.67;;;1.10;;
25237;SDS011;13185;50.872;5.306;2023-02-25T04:02:22;10.10;;;1.57;;
25237;SDS011;13185;50.872;5.306;2023-02-25T04:04:52;8.23;;;1.33;;
25237;SDS011;13185;50.872;5.306;2023-02-25T04:07:18;6.60;;;1.20;;
25237;SDS011;13185;50.872;5.306;2023-02-25T04:09:44;12.20;;;1.87;;
25237;SDS011;13185;50.872;5.306;2023-02-25T04:12:09;11.97;;;1.47;;
25237;SDS011;13185;50.872;5.306;2023-02-25T04:14:35;12.63;;;2.33;;
25237;SDS011;13185;50.872;5.306;2023-02-25T04:17:00;13.17;;;2.00;;
25237;SDS011;13185;50.872;5.306;2023-02-25T04:19:29;12.97;;;1.60;;
25237;SDS011;13185;50.872;5.306;2023-02-25T04:21:54;10.07;;;1.90;;
25237;SDS011;13185;50.872;5.306;2023-02-25T04:24:20;7.80;;;1.60;;
25237;SDS011;13185;50.872;5.306;2023-02-25T04:26:45;9.23;;;1.47;;
25237;SDS011;13185;50.872;5.306;2023-02-25T04:29:11;5.53;;;1.53;;
25237;SDS011;13185;50.872;5.306;2023-02-25T04:31:36;8.63;;;1.30;;
25237;SDS011;13185;50.872;5.306;2023-02-25T04:34:02;5.73;;;1.27;;
25237;SDS011;13185;50.872;5.306;2023-02-25T04:36:29;12.20;;;1.77;;
25237;SDS011;13185;50.872;5.306;2023-02-25T04:38:59;10.73;;;1.30;;
25237;SDS011;13185;50.872;5.306;2023-02-25T04:41:30;7.80;;;1.03;;
25237;SDS011;13185;50.872;5.306;2023-02-25T04:43:57;10.10;;;1.47;;
25237;SDS011;13185;50.872;5.306;2023-02-25T04:46:24;10.93;;;2.27;;
25237;SDS011;13185;50.872;5.306;2023-02-25T04:48:49;13.17;;;2.07;;
25237;SDS011;13185;50.872;5.306;2023-02-25T04:51:15;10.70;;;1.53;;
25237;SDS011;13185;50.872;5.306;2023-02-25T04:53:41;5.93;;;1.10;;
25237;SDS011;13185;50.872;5.306;2023-02-25T04:56:07;9.83;;;1.10;;
25237;SDS011;13185;50.872;5.306;2023-02-25T04:58:35;10.60;;;1.20;;
25237;SDS011;13185;50.872;5.306;2023-02-25T05:01:02;12.27;;;1.50;;
25237;SDS011;13185;50.872;5.306;2023-02-25T05:03:30;6.40;;;1.40;;
25237;SDS011;13185;50.872;5.306;2023-02-25T05:05:56;14.30;;;1.97;;
25237;SDS011;13185;50.872;5.306;2023-02-25T05:08:22;11.70;;;1.70;;
25237;SDS011;13185;50.872;5.306;2023-02-25T05:10:48;10.57;;;1.57;;
25237;SDS011;13185;50.872;5.306;2023-02-25T05:13:14;7.67;;;1.10;;
25237;SDS011;13185;50.872;5.306;2023-02-25T05:15:39;8.00;;;1.30;;
25237;SDS011;13185;50.872;5.306;2023-02-25T05:18:05;6.97;;;1.53;;
25237;SDS011;13185;50.872;5.306;2023-02-25T05:20:31;8.10;;;1.53;;
25237;SDS011;13185;50.872;5.306;2023-02-25T05:22:56;13.17;;;1.67;;
25237;SDS011;13185;50.872;5.306;2023-02-25T05:25:22;10.27;;;1.23;;
25237;SDS011;13185;50.872;5.306;2023-02-25T05:27:47;8.57;;;1.17;;
25237;SDS011;13185;50.872;5.306;2023-02-25T05:30:13;7.27;;;1.23;;
25237;SDS011;13185;50.872;5.306;2023-02-25T05:32:39;11.13;;;1.93;;
25237;SDS011;13185;50.872;5.306;2023-02-25T05:35:08;8.50;;;1.50;;
25237;SDS011;13185;50.872;5.306;2023-02-25T05:37:34;4.47;;;1.37;;
25237;SDS011;13185;50.872;5.306;2023-02-25T05:40:00;9.47;;;1.50;;
25237;SDS011;13185;50.872;5.306;2023-02-25T05:42:26;6.50;;;1.03;;
25237;SDS011;13185;50.872;5.306;2023-02-25T05:44:52;8.87;;;1.30;;
25237;SDS011;13185;50.872;5.306;2023-02-25T05:47:17;8.93;;;1.70;;
25237;SDS011;13185;50.872;5.306;2023-02-25T05:49:43;13.07;;;3.17;;
25237;SDS011;13185;50.872;5.306;2023-02-25T05:52:09;8.27;;;2.13;;
25237;SDS011;13185;50.872;5.306;2023-02-25T05:54:37;11.10;;;3.23;;
25237;SDS011;13185;50.872;5.306;2023-02-25T05:57:02;13.87;;;2.43;;
25237;SDS011;13185;50.872;5.306;2023-02-25T05:59:28;10.37;;;3.00;;
25237;SDS011;13185;50.872;5.306;2023-02-25T06:01:53;10.27;;;2.50;;
25237;SDS011;13185;50.872;5.306;2023-02-25T06:04:19;15.20;;;3.33;;
25237;SDS011;13185;50.872;5.306;2023-02-25T06:06:44;15.67;;;1.80;;
25237;SDS011;13185;50.872;5.306;2023-02-25T06:09:15;13.00;;;1.90;;
25237;SDS011;13185;50.872;5.306;2023-02-25T06:11:43;9.77;;;1.37;;
25237;SDS011;13185;50.872;5.306;2023-02-25T06:14:10;14.13;;;2.07;;
25237;SDS011;13185;50.872;5.306;2023-02-25T06:16:36;9.73;;;1.47;;
25237;SDS011;13185;50.872;5.306;2023-02-25T06:19:03;9.77;;;1.70;;
25237;SDS011;13185;50.872;5.306;2023-02-25T06:21:30;9.97;;;1.60;;
25237;SDS011;13185;50.872;5.306;2023-02-25T06:23:58;14.90;;;1.80;;
25237;SDS011;13185;50.872;5.306;2023-02-25T06:26:24;10.10;;;1.90;;
25237;SDS011;13185;50.872;5.306;2023-02-25T06:28:51;11.23;;;1.80;;
25237;SDS011;13185;50.872;5.306;2023-02-25T06:31:17;9.67;;;2.30;;
25237;SDS011;13185;50.872;5.306;2023-02-25T06:33:44;10.40;;;1.83;;
25237;SDS011;13185;50.872;5.306;2023-02-25T06:36:11;7.63;;;1.77;;
25237;SDS011;13185;50.872;5.306;2023-02-25T06:38:38;13.57;;;1.90;;
25237;SDS011;13185;50.872;5.306;2023-02-25T06:41:07;11.43;;;2.03;;
25237;SDS011;13185;50.872;5.306;2023-02-25T06:43:35;11.07;;;2.07;;
25237;SDS011;13185;50.872;5.306;2023-02-25T06:46:03;8.37;;;1.80;;
25237;SDS011;13185;50.872;5.306;2023-02-25T06:48:29;23.33;;;1.93;;
25237;SDS011;13185;50.872;5.306;2023-02-25T06:50:55;16.30;;;2.20;;
25237;SDS011;13185;50.872;5.306;2023-02-25T06:53:20;9.37;;;1.53;;
25237;SDS011;13185;50.872;5.306;2023-02-25T06:55:46;9.37;;;1.63;;
25237;SDS011;13185;50.872;5.306;2023-02-25T06:58:12;6.00;;;1.73;;
25237;SDS011;13185;50.872;5.306;2023-02-25T07:00:37;6.67;;;1.50;;
25237;SDS011;13185;50.872;5.306;2023-02-25T07:03:03;7.37;;;2.97;;
25237;SDS011;13185;50.872;5.306;2023-02-25T07:05:29;14.90;;;2.43;;
25237;SDS011;13185;50.872;5.306;2023-02-25T07:07:55;15.43;;;2.30;;
25237;SDS011;13185;50.872;5.306;2023-02-25T07:10:20;9.33;;;2.87;;
25237;SDS011;13185;50.872;5.306;2023-02-25T07:12:46;12.03;;;2.17;;
25237;SDS011;13185;50.872;5.306;2023-02-25T07:15:11;17.20;;;2.87;;
25237;SDS011;13185;50.872;5.306;2023-02-25T07:17:37;13.60;;;1.90;;
25237;SDS011;13185;50.872;5.306;2023-02-25T07:20:02;11.63;;;2.20;;
25237;SDS011;13185;50.872;5.306;2023-02-25T07:22:28;8.53;;;1.43;;
25237;SDS011;13185;50.872;5.306;2023-02-25T07:24:53;11.43;;;2.07;;
25237;SDS011;13185;50.872;5.306;2023-02-25T07:27:19;16.80;;;2.10;;
25237;SDS011;13185;50.872;5.306;2023-02-25T07:29:44;17.03;;;2.40;;
25237;SDS011;13185;50.872;5.306;2023-02-25T07:32:10;13.30;;;2.07;;
25237;SDS011;13185;50.872;5.306;2023-02-25T07:34:36;15.50;;;2.90;;
25237;SDS011;13185;50.872;5.306;2023-02-25T07:37:01;11.30;;;1.60;;
25237;SDS011;13185;50.872;5.306;2023-02-25T07:39:27;9.67;;;1.53;;
25237;SDS011;13185;50.872;5.306;2023-02-25T07:41:52;12.67;;;1.90;;
25237;SDS011;13185;50.872;5.306;2023-02-25T07:44:18;15.03;;;1.77;;
25237;SDS011;13185;50.872;5.306;2023-02-25T07:46:44;16.40;;;2.70;;
25237;SDS011;13185;50.872;5.306;2023-02-25T07:49:09;21.07;;;3.20;;
25237;SDS011;13185;50.872;5.306;2023-02-25T07:51:36;10.77;;;1.63;;
25237;SDS011;13185;50.872;5.306;2023-02-25T07:54:02;13.30;;;1.93;;
25237;SDS011;13185;50.872;5.306;2023-02-25T07:56:28;8.10;;;2.07;;
25237;SDS011;13185;50.872;5.306;2023-02-25T07:58:54;6.27;;;1.70;;
25237;SDS011;13185;50.872;5.306;2023-02-25T08:01:20;9.60;;;2.27;;
25237;SDS011;13185;50.872;5.306;2023-02-25T08:03:51;6.93;;;1.87;;
25237;SDS011;13185;50.872;5.306;2023-02-25T08:06:19;11.37;;;1.60;;
25237;SDS011;13185;50.872;5.306;2023-02-25T08:08:45;9.37;;;2.27;;
25237;SDS011;13185;50.872;5.306;2023-02-25T08:11:12;11.77;;;1.80;;
25237;SDS011;13185;50.872;5.306;2023-02-25T08:13:38;14.90;;;2.13;;
25237;SDS011;13185;50.872;5.306;2023-02-25T08:16:06;10.63;;;2.30;;
25237;SDS011;13185;50.872;5.306;2023-02-25T08:18:33;10.53;;;1.67;;
25237;SDS011;13185;50.872;5.306;2023-02-25T08:20:59;11.43;;;2.27;;
25237;SDS011;13185;50.872;5.306;2023-02-25T08:23:25;8.70;;;1.93;;
25237;SDS011;13185;50.872;5.306;2023-02-25T08:25:53;9.10;;;1.53;;
25237;SDS011;13185;50.872;5.306;2023-02-25T08:28:20;13.27;;;2.50;;
25237;SDS011;13185;50.872;5.306;2023-02-25T08:30:47;13.83;;;2.53;;
25237;SDS011;13185;50.872;5.306;2023-02-25T08:33:13;11.97;;;1.77;;
25237;SDS011;13185;50.872;5.306;2023-02-25T08:35:39;12.03;;;2.57;;
25237;SDS011;13185;50.872;5.306;2023-02-25T08:38:05;14.07;;;2.87;;
25237;SDS011;13185;50.872;5.306;2023-02-25T08:40:30;13.63;;;1.73;;
25237;SDS011;13185;50.872;5.306;2023-02-25T08:42:56;13.70;;;1.80;;
25237;SDS011;13185;50.872;5.306;2023-02-25T08:45:22;15.17;;;1.87;;
25237;SDS011;13185;50.872;5.306;2023-02-25T08:47:48;14.47;;;1.50;;
25237;SDS011;13185;50.872;5.306;2023-02-25T08:50:13;9.63;;;1.50;;
25237;SDS011;13185;50.872;5.306;2023-02-25T08:52:41;11.67;;;1.93;;
25237;SDS011;13185;50.872;5.306;2023-02-25T08:55:07;9.10;;;1.50;;
25237;SDS011;13185;50.872;5.306;2023-02-25T08:57:33;8.40;;;1.70;;
25237;SDS011;13185;50.872;5.306;2023-02-25T08:59:59;13.00;;;1.93;;
25237;SDS011;13185;50.872;5.306;2023-02-25T09:02:24;9.43;;;2.07;;
25237;SDS011;13185;50.872;5.306;2023-02-25T09:04:50;11.60;;;1.20;;
25237;SDS011;13185;50.872;5.306;2023-02-25T09:07:16;11.47;;;1.60;;
25237;SDS011;13185;50.872;5.306;2023-02-25T09:09:41;11.30;;;1.60;;
25237;SDS011;13185;50.872;5.306;2023-02-25T09:12:08;9.43;;;1.67;;
25237;SDS011;13185;50.872;5.306;2023-02-25T09:14:34;9.80;;;1.60;;
25237;SDS011;13185;50.872;5.306;2023-02-25T09:17:03;9.07;;;1.93;;
25237;SDS011;13185;50.872;5.306;2023-02-25T09:19:30;8.87;;;1.67;;
25237;SDS011;13185;50.872;5.306;2023-02-25T09:21:56;17.35;;;2.40;;
25237;SDS011;13185;50.872;5.306;2023-02-25T09:24:22;10.20;;;2.47;;
25237;SDS011;13185;50.872;5.306;2023-02-25T09:26:48;14.00;;;2.47;;
25237;SDS011;13185;50.872;5.306;2023-02-25T09:29:13;11.07;;;1.63;;
25237;SDS011;13185;50.872;5.306;2023-02-25T09:31:39;9.02;;;1.40;;
25237;SDS011;13185;50.872;5.306;2023-02-25T09:34:07;10.83;;;2.37;;
25237;SDS011;13185;50.872;5.306;2023-02-25T09:36:34;15.65;;;2.40;;
25237;SDS011;13185;50.872;5.306;2023-02-25T09:39:00;14.47;;;2.67;;
25237;SDS011;13185;50.872;5.306;2023-02-25T09:44:21;11.55;;;1.85;;
25237;SDS011;13185;50.872;5.306;2023-02-25T09:46:52;14.07;;;2.50;;
25237;SDS011;13185;50.872;5.306;2023-02-25T09:55:06;18.95;;;3.83;;
25237;SDS011;13185;50.872;5.306;2023-02-25T09:57:36;12.65;;;2.10;;
25237;SDS011;13185;50.872;5.306;2023-02-25T10:00:06;15.43;;;3.30;;
25237;SDS011;13185;50.872;5.306;2023-02-25T10:02:57;15.68;;;3.33;;
25237;SDS011;13185;50.872;5.306;2023-02-25T10:08:20;11.77;;;1.88;;
25237;SDS011;13185;50.872;5.306;2023-02-25T10:10:58;10.70;;;1.95;;
25237;SDS011;13185;50.872;5.306;2023-02-25T10:16:07;9.85;;;1.77;;
25237;SDS011;13185;50.872;5.306;2023-02-25T10:21:50;13.73;;;2.45;;
25237;SDS011;13185;50.872;5.306;2023-02-25T10:24:31;15.75;;;2.08;;
25237;SDS011;13185;50.872;5.306;2023-02-25T10:27:08;8.48;;;2.10;;
25237;SDS011;13185;50.872;5.306;2023-02-25T10:29:40;11.10;;;2.20;;
25237;SDS011;13185;50.872;5.306;2023-02-25T10:32:17;14.88;;;2.83;;
25237;SDS011;13185;50.872;5.306;2023-02-25T10:34:45;11.98;;;3.03;;
25237;SDS011;13185;50.872;5.306;2023-02-25T10:37:16;15.65;;;2.08;;
25237;SDS011;13185;50.872;5.306;2023-02-25T10:39:45;7.20;;;1.73;;
25237;SDS011;13185;50.872;5.306;2023-02-25T10:42:13;16.38;;;2.45;;
25237;SDS011;13185;50.872;5.306;2023-02-25T10:44:40;13.00;;;1.88;;
25237;SDS011;13185;50.872;5.306;2023-02-25T10:47:08;11.25;;;2.10;;
25237;SDS011;13185;50.872;5.306;2023-02-25T10:49:39;12.77;;;1.95;;
25237;SDS011;13185;50.872;5.306;2023-02-25T10:52:15;8.90;;;1.83;;
25237;SDS011;13185;50.872;5.306;2023-02-25T10:54:51;13.65;;;3.17;;
25237;SDS011;13185;50.872;5.306;2023-02-25T10:59:43;16.08;;;2.53;;
25237;SDS011;13185;50.872;5.306;2023-02-25T11:02:26;12.15;;;2.53;;
25237;SDS011;13185;50.872;5.306;2023-02-25T11:04:54;19.30;;;2.30;;
25237;SDS011;13185;50.872;5.306;2023-02-25T11:15:34;13.13;;;3.05;;
25237;SDS011;13185;50.872;5.306;2023-02-25T11:20:51;10.35;;;1.90;;
25237;SDS011;13185;50.872;5.306;2023-02-25T11:23:23;10.35;;;2.45;;
25237;SDS011;13185;50.872;5.306;2023-02-25T11:25:59;9.07;;;1.70;;
25237;SDS011;13185;50.872;5.306;2023-02-25T11:28:27;8.20;;;1.30;;
25237;SDS011;13185;50.872;5.306;2023-02-25T11:31:03;7.93;;;1.13;;
25237;SDS011;13185;50.872;5.306;2023-02-25T11:33:35;12.73;;;2.65;;
25237;SDS011;13185;50.872;5.306;2023-02-25T11:36:03;13.63;;;2.05;;
25237;SDS011;13185;50.872;5.306;2023-02-25T11:40:57;11.75;;;1.88;;
25237;SDS011;13185;50.872;5.306;2023-02-25T11:43:25;8.02;;;1.42;;
25237;SDS011;13185;50.872;5.306;2023-02-25T11:45:59;8.85;;;1.73;;
25237;SDS011;13185;50.872;5.306;2023-02-25T11:48:38;10.75;;;2.25;;
25237;SDS011;13185;50.872;5.306;2023-02-25T11:56:36;18.58;;;1.80;;
25237;SDS011;13185;50.872;5.306;2023-02-25T12:10:06;11.95;;;1.50;;
25237;SDS011;13185;50.872;5.306;2023-02-25T12:13:00;13.77;;;1.90;;
25237;SDS011;13185;50.872;5.306;2023-02-25T12:15:52;6.65;;;1.10;;
25237;SDS011;13185;50.872;5.306;2023-02-25T12:21:21;4.53;;;0.85;;
25237;SDS011;13185;50.872;5.306;2023-02-25T12:37:47;5.22;;;0.73;;
25237;SDS011;13185;50.872;5.306;2023-02-25T12:46:18;4.80;;;0.80;;
25237;SDS011;13185;50.872;5.306;2023-02-25T12:51:59;4.60;;;1.10;;
25237;SDS011;13185;50.872;5.306;2023-02-25T13:02:49;5.55;;;0.95;;
25237;SDS011;13185;50.872;5.306;2023-02-25T13:16:15;8.02;;;1.52;;
25237;SDS011;13185;50.872;5.306;2023-02-25T13:19:10;6.60;;;1.45;;
25237;SDS011;13185;50.872;5.306;2023-02-25T13:30:43;8.82;;;1.42;;
25237;SDS011;13185;50.872;5.306;2023-02-25T13:36:07;6.18;;;1.17;;
25237;SDS011;13185;50.872;5.306;2023-02-25T13:44:26;3.90;;;1.10;;
25237;SDS011;13185;50.872;5.306;2023-02-25T13:55:22;3.67;;;0.80;;
25237;SDS011;13185;50.872;5.306;2023-02-25T14:09:54;7.00;;;1.15;;
25237;SDS011;13185;50.872;5.306;2023-02-25T14:15:16;1.80;;;0.63;;
25237;SDS011;13185;50.872;5.306;2023-02-25T14:18:02;6.20;;;1.02;;
25237;SDS011;13185;50.872;5.306;2023-02-25T14:22:59;3.13;;;0.43;;
25237;SDS011;13185;50.872;5.306;2023-02-25T14:33:41;3.65;;;0.70;;
25237;SDS011;13185;50.872;5.306;2023-02-25T14:39:19;5.70;;;0.88;;
25237;SDS011;13185;50.872;5.306;2023-02-25T14:47:34;5.60;;;0.82;;
25237;SDS011;13185;50.872;5.306;2023-02-25T15:22:35;5.53;;;1.10;;
25237;SDS011;13185;50.872;5.306;2023-02-25T15:27:50;6.78;;;0.80;;
25237;SDS011;13185;50.872;5.306;2023-02-25T15:30:22;3.33;;;0.90;;
25237;SDS011;13185;50.872;5.306;2023-02-25T15:43:01;5.60;;;0.90;;
25237;SDS011;13185;50.872;5.306;2023-02-25T15:45:50;5.68;;;1.13;;
25237;SDS011;13185;50.872;5.306;2023-02-25T15:50:52;5.40;;;0.80;;
25237;SDS011;13185;50.872;5.306;2023-02-25T15:55:48;5.65;;;1.35;;
25237;SDS011;13185;50.872;5.306;2023-02-25T16:06:00;4.38;;;0.88;;
25237;SDS011;13185;50.872;5.306;2023-02-25T16:11:20;3.25;;;0.88;;
25237;SDS011;13185;50.872;5.306;2023-02-25T16:13:57;7.97;;;1.10;;
25237;SDS011;13185;50.872;5.306;2023-02-25T16:16:24;3.63;;;1.13;;
25237;SDS011;13185;50.872;5.306;2023-02-25T16:18:52;7.47;;;1.67;;
25237;SDS011;13185;50.872;5.306;2023-02-25T16:23:50;6.60;;;1.10;;
25237;SDS011;13185;50.872;5.306;2023-02-25T16:29:27;8.88;;;1.20;;
25237;SDS011;13185;50.872;5.306;2023-02-25T16:35:11;3.78;;;0.93;;
25237;SDS011;13185;50.872;5.306;2023-02-25T16:37:49;8.77;;;1.48;;
25237;SDS011;13185;50.872;5.306;2023-02-25T16:40:36;5.38;;;1.20;;
25237;SDS011;13185;50.872;5.306;2023-02-25T16:43:03;7.28;;;1.98;;
25237;SDS011;13185;50.872;5.306;2023-02-25T16:45:32;5.90;;;1.25;;
25237;SDS011;13185;50.872;5.306;2023-02-25T16:48:06;9.52;;;1.42;;
25237;SDS011;13185;50.872;5.306;2023-02-25T16:50:46;7.95;;;2.65;;
25237;SDS011;13185;50.872;5.306;2023-02-25T16:53:17;8.73;;;1.15;;
25237;SDS011;13185;50.872;5.306;2023-02-25T16:55:48;4.90;;;1.27;;
25237;SDS011;13185;50.872;5.306;2023-02-25T17:03:16;6.90;;;1.35;;
25237;SDS011;13185;50.872;5.306;2023-02-25T17:05:43;4.13;;;1.40;;
25237;SDS011;13185;50.872;5.306;2023-02-25T17:08:22;9.18;;;1.90;;
25237;SDS011;13185;50.872;5.306;2023-02-25T17:10:48;5.40;;;1.75;;
25237;SDS011;13185;50.872;5.306;2023-02-25T17:13:24;9.55;;;1.90;;
25237;SDS011;13185;50.872;5.306;2023-02-25T17:15:53;9.68;;;1.40;;
25237;SDS011;13185;50.872;5.306;2023-02-25T17:21:18;7.38;;;1.30;;
25237;SDS011;13185;50.872;5.306;2023-02-25T17:23:48;11.15;;;1.77;;
25237;SDS011;13185;50.872;5.306;2023-02-25T17:26:14;4.57;;;1.08;;
25237;SDS011;13185;50.872;5.306;2023-02-25T17:28:40;10.77;;;2.25;;
25237;SDS011;13185;50.872;5.306;2023-02-25T17:31:16;6.22;;;1.30;;
25237;SDS011;13185;50.872;5.306;2023-02-25T17:36:13;5.93;;;1.35;;
25237;SDS011;13185;50.872;5.306;2023-02-25T17:38:42;6.55;;;1.20;;
25237;SDS011;13185;50.872;5.306;2023-02-25T17:41:13;6.63;;;1.35;;
25237;SDS011;13185;50.872;5.306;2023-02-25T17:43:43;5.32;;;1.33;;
25237;SDS011;13185;50.872;5.306;2023-02-25T17:48:40;6.30;;;1.30;;
25237;SDS011;13185;50.872;5.306;2023-02-25T17:51:07;6.38;;;1.55;;
25237;SDS011;13185;50.872;5.306;2023-02-25T17:53:48;3.22;;;0.80;;
25237;SDS011;13185;50.872;5.306;2023-02-25T17:58:59;4.38;;;0.82;;
25237;SDS011;13185;50.872;5.306;2023-02-25T18:01:44;3.92;;;0.98;;
25237;SDS011;13185;50.872;5.306;2023-02-25T18:04:19;4.00;;;1.30;;
25237;SDS011;13185;50.872;5.306;2023-02-25T18:06:48;5.07;;;1.20;;
25237;SDS011;13185;50.872;5.306;2023-02-25T18:09:27;4.32;;;1.38;;
25237;SDS011;13185;50.872;5.306;2023-02-25T18:11:59;4.82;;;1.23;;
25237;SDS011;13185;50.872;5.306;2023-02-25T18:16:58;5.72;;;1.42;;
25237;SDS011;13185;50.872;5.306;2023-02-25T18:19:25;4.90;;;1.60;;
25237;SDS011;13185;50.872;5.306;2023-02-25T18:21:56;3.97;;;1.40;;
25237;SDS011;13185;50.872;5.306;2023-02-25T18:24:29;7.03;;;1.30;;
25237;SDS011;13185;50.872;5.306;2023-02-25T18:29:25;2.65;;;1.05;;
25237;SDS011;13185;50.872;5.306;2023-02-25T18:31:50;4.28;;;1.20;;
25237;SDS011;13185;50.872;5.306;2023-02-25T18:34:16;5.97;;;1.10;;
25237;SDS011;13185;50.872;5.306;2023-02-25T18:36:41;4.28;;;1.00;;
25237;SDS011;13185;50.872;5.306;2023-02-25T18:39:08;5.40;;;0.80;;
25237;SDS011;13185;50.872;5.306;2023-02-25T18:41:36;5.33;;;0.93;;
25237;SDS011;13185;50.872;5.306;2023-02-25T18:44:02;3.63;;;0.87;;
25237;SDS011;13185;50.872;5.306;2023-02-25T18:46:27;2.90;;;0.98;;
25237;SDS011;13185;50.872;5.306;2023-02-25T18:48:52;6.53;;;1.13;;
25237;SDS011;13185;50.872;5.306;2023-02-25T18:51:18;4.03;;;1.00;;
25237;SDS011;13185;50.872;5.306;2023-02-25T18:53:43;5.80;;;1.03;;
25237;SDS011;13185;50.872;5.306;2023-02-25T18:56:11;3.40;;;1.00;;
25237;SDS011;13185;50.872;5.306;2023-02-25T18:58:41;3.88;;;1.58;;
25237;SDS011;13185;50.872;5.306;2023-02-25T19:01:10;7.40;;;1.43;;
25237;SDS011;13185;50.872;5.306;2023-02-25T19:03:43;4.95;;;1.58;;
25237;SDS011;13185;50.872;5.306;2023-02-25T19:06:10;6.50;;;1.40;;
25237;SDS011;13185;50.872;5.306;2023-02-25T19:08:38;4.83;;;1.13;;
25237;SDS011;13185;50.872;5.306;2023-02-25T19:11:04;10.13;;;1.40;;
25237;SDS011;13185;50.872;5.306;2023-02-25T19:16:04;5.87;;;1.73;;
25237;SDS011;13185;50.872;5.306;2023-02-25T19:18:30;4.43;;;1.10;;
25237;SDS011;13185;50.872;5.306;2023-02-25T19:20:56;9.73;;;1.80;;
25237;SDS011;13185;50.872;5.306;2023-02-25T19:23:21;6.23;;;1.43;;
25237;SDS011;13185;50.872;5.306;2023-02-25T19:25:48;6.93;;;1.20;;
25237;SDS011;13185;50.872;5.306;2023-02-25T19:28:19;3.07;;;1.23;;
25237;SDS011;13185;50.872;5.306;2023-02-25T19:30:45;6.23;;;1.20;;